sensor_id;sensor_type;location;lat;lon;timestamp;temperature;humidity
36002;DHT22;22070;50.922;5.430;2023-02-24T00:01:17;7.50;99.90
36002;DHT22;22070;50.922;5.430;2023-02-24T00:04:11;7.50;99.90
36002;DHT22;22070;50.922;5.430;2023-02-24T00:06:40;7.60;99.90
36002;DHT22;22070;50.922;5.430;2023-02-24T00:09:19;7.50;99.90
36002;DHT22;22070;50.922;5.430;2023-02-24T00:11:51;7.50;99.90
36002;DHT22;22070;50.922;5.430;2023-02-24T00:14:16;7.80;99.90
36002;DHT22;22070;50.922;5.430;2023-02-24T00:16:44;7.60;99.90
36002;DHT22;22070;50.922;5.430;2023-02-24T00:19:19;7.70;99.90
36002;DHT22;22070;50.922;5.430;2023-02-24T00:21:46;7.70;99.90
36002;DHT22;22070;50.922;5.430;2023-02-24T00:24:12;7.80;99.90
36002;DHT22;22070;50.922;5.430;2023-02-24T00:26:38;7.80;99.90
36002;DHT22;22070;50.922;5.430;2023-02-24T00:29:06;7.80;99.90
36002;DHT22;22070;50.922;5.430;2023-02-24T00:31:33;7.80;99.90
36002;DHT22;22070;50.922;5.430;2023-02-24T00:34:00;7.90;99.90
36002;DHT22;22070;50.922;5.430;2023-02-24T00:36:27;7.90;99.90
36002;DHT22;22070;50.922;5.430;2023-02-24T00:38:56;7.90;99.90
36002;DHT22;22070;50.922;5.430;2023-02-24T00:41:24;7.90;99.90
36002;DHT22;22070;50.922;5.430;2023-02-24T00:43:54;7.80;99.90
36002;DHT22;22070;50.922;5.430;2023-02-24T00:46:22;7.90;99.90
36002;DHT22;22070;50.922;5.430;2023-02-24T00:48:51;7.90;99.90
36002;DHT22;22070;50.922;5.430;2023-02-24T00:51:23;7.90;99.90
36002;DHT22;22070;50.922;5.430;2023-02-24T00:53:54;7.90;99.90
36002;DHT22;22070;50.922;5.430;2023-02-24T00:56:21;8.00;99.90
36002;DHT22;22070;50.922;5.430;2023-02-24T00:58:47;7.90;99.90
36002;DHT22;22070;50.922;5.430;2023-02-24T01:01:14;8.00;99.90
36002;DHT22;22070;50.922;5.430;2023-02-24T01:03:44;7.90;99.90
36002;DHT22;22070;50.922;5.430;2023-02-24T01:06:11;7.80;99.90
36002;DHT22;22070;50.922;5.430;2023-02-24T01:08:39;7.90;99.90
36002;DHT22;22070;50.922;5.430;2023-02-24T01:11:07;7.90;99.90
36002;DHT22;22070;50.922;5.430;2023-02-24T01:13:52;7.90;99.90
36002;DHT22;22070;50.922;5.430;2023-02-24T01:16:18;7.90;99.90
36002;DHT22;22070;50.922;5.430;2023-02-24T01:18:47;7.80;99.90
36002;DHT22;22070;50.922;5.430;2023-02-24T01:21:14;7.80;99.90
36002;DHT22;22070;50.922;5.430;2023-02-24T01:23:41;7.80;99.90
36002;DHT22;22070;50.922;5.430;2023-02-24T01:26:08;7.80;99.90
36002;DHT22;22070;50.922;5.430;2023-02-24T01:28:34;7.70;99.90
36002;DHT22;22070;50.922;5.430;2023-02-24T01:31:03;7.60;99.90
36002;DHT22;22070;50.922;5.430;2023-02-24T01:33:30;7.70;99.90
36002;DHT22;22070;50.922;5.430;2023-02-24T01:36:08;7.60;99.90
36002;DHT22;22070;50.922;5.430;2023-02-24T01:38:33;7.60;99.90
36002;DHT22;22070;50.922;5.430;2023-02-24T01:41:01;7.60;99.90
36002;DHT22;22070;50.922;5.430;2023-02-24T01:43:30;7.60;99.90
36002;DHT22;22070;50.922;5.430;2023-02-24T01:45:56;7.60;99.90
36002;DHT22;22070;50.922;5.430;2023-02-24T01:48:22;7.70;99.90
36002;DHT22;22070;50.922;5.430;2023-02-24T01:50:49;7.70;99.90
36002;DHT22;22070;50.922;5.430;2023-02-24T01:53:16;7.70;99.90
36002;DHT22;22070;50.922;5.430;2023-02-24T01:55:44;7.70;99.90
36002;DHT22;22070;50.922;5.430;2023-02-24T01:58:19;7.70;99.90
36002;DHT22;22070;50.922;5.430;2023-02-24T02:00:47;7.60;99.90
36002;DHT22;22070;50.922;5.430;2023-02-24T02:05:43;7.40;99.90
36002;DHT22;22070;50.922;5.430;2023-02-24T02:08:13;7.50;99.90
36002;DHT22;22070;50.922;5.430;2023-02-24T02:10:40;7.40;99.90
36002;DHT22;22070;50.922;5.430;2023-02-24T02:13:09;7.40;99.90
36002;DHT22;22070;50.922;5.430;2023-02-24T02:15:46;7.30;99.90
36002;DHT22;22070;50.922;5.430;2023-02-24T02:21:19;7.20;99.90
36002;DHT22;22070;50.922;5.430;2023-02-24T02:24:13;7.20;99.90
36002;DHT22;22070;50.922;5.430;2023-02-24T02:30:08;7.10;99.90
36002;DHT22;22070;50.922;5.430;2023-02-24T02:35:55;7.00;99.90
36002;DHT22;22070;50.922;5.430;2023-02-24T02:38:36;7.00;99.90
36002;DHT22;22070;50.922;5.430;2023-02-24T02:41:36;7.10;99.90
36002;DHT22;22070;50.922;5.430;2023-02-24T02:47:07;6.90;99.90
36002;DHT22;22070;50.922;5.430;2023-02-24T02:49:48;6.90;99.90
36002;DHT22;22070;50.922;5.430;2023-02-24T02:52:28;6.90;99.90
36002;DHT22;22070;50.922;5.430;2023-02-24T02:55:02;7.00;99.90
36002;DHT22;22070;50.922;5.430;2023-02-24T02:57:33;6.90;99.90
36002;DHT22;22070;50.922;5.430;2023-02-24T03:00:13;7.00;99.90
36002;DHT22;22070;50.922;5.430;2023-02-24T03:02:51;6.90;99.90
36002;DHT22;22070;50.922;5.430;2023-02-24T03:05:24;6.90;99.90
36002;DHT22;22070;50.922;5.430;2023-02-24T03:07:57;7.00;99.90
36002;DHT22;22070;50.922;5.430;2023-02-24T03:10:25;7.00;99.90
36002;DHT22;22070;50.922;5.430;2023-02-24T03:12:57;6.90;99.90
36002;DHT22;22070;50.922;5.430;2023-02-24T03:15:26;7.00;99.90
36002;DHT22;22070;50.922;5.430;2023-02-24T03:18:05;7.00;99.90
36002;DHT22;22070;50.922;5.430;2023-02-24T03:20:55;7.10;99.90
36002;DHT22;22070;50.922;5.430;2023-02-24T03:23:24;7.10;99.90
36002;DHT22;22070;50.922;5.430;2023-02-24T03:26:55;7.10;99.90
36002;DHT22;22070;50.922;5.430;2023-02-24T03:31:24;7.10;99.90
36002;DHT22;22070;50.922;5.430;2023-02-24T03:34:18;7.10;99.90
36002;DHT22;22070;50.922;5.430;2023-02-24T03:36:46;7.00;99.90
36002;DHT22;22070;50.922;5.430;2023-02-24T03:39:12;7.00;99.90
36002;DHT22;22070;50.922;5.430;2023-02-24T03:42:16;6.90;99.90
36002;DHT22;22070;50.922;5.430;2023-02-24T03:44:43;6.90;99.90
36002;DHT22;22070;50.922;5.430;2023-02-24T03:47:10;7.00;99.90
36002;DHT22;22070;50.922;5.430;2023-02-24T03:49:37;6.90;99.90
36002;DHT22;22070;50.922;5.430;2023-02-24T03:52:37;6.90;99.90
36002;DHT22;22070;50.922;5.430;2023-02-24T03:55:29;7.00;99.90
36002;DHT22;22070;50.922;5.430;2023-02-24T03:58:27;7.10;99.90
36002;DHT22;22070;50.922;5.430;2023-02-24T04:01:07;7.00;99.90
36002;DHT22;22070;50.922;5.430;2023-02-24T04:06:44;6.90;99.90
36002;DHT22;22070;50.922;5.430;2023-02-24T04:11:51;6.80;99.90
36002;DHT22;22070;50.922;5.430;2023-02-24T04:14:28;6.90;99.90
36002;DHT22;22070;50.922;5.430;2023-02-24T04:16:58;6.90;99.90
36002;DHT22;22070;50.922;5.430;2023-02-24T04:19:31;6.90;99.90
36002;DHT22;22070;50.922;5.430;2023-02-24T04:21:58;7.00;99.90
36002;DHT22;22070;50.922;5.430;2023-02-24T04:24:29;6.90;99.90
36002;DHT22;22070;50.922;5.430;2023-02-24T04:26:57;6.90;99.90
36002;DHT22;22070;50.922;5.430;2023-02-24T04:29:25;6.90;99.90
36002;DHT22;22070;50.922;5.430;2023-02-24T04:31:57;6.80;99.90
36002;DHT22;22070;50.922;5.430;2023-02-24T04:34:25;6.80;99.90
36002;DHT22;22070;50.922;5.430;2023-02-24T04:36:53;6.70;99.90
36002;DHT22;22070;50.922;5.430;2023-02-24T04:39:20;6.70;99.90
36002;DHT22;22070;50.922;5.430;2023-02-24T04:41:48;6.70;99.90
36002;DHT22;22070;50.922;5.430;2023-02-24T04:44:19;6.60;99.90
36002;DHT22;22070;50.922;5.430;2023-02-24T04:46:46;6.60;99.90
36002;DHT22;22070;50.922;5.430;2023-02-24T04:49:12;6.60;99.90
36002;DHT22;22070;50.922;5.430;2023-02-24T04:51:38;6.60;99.90
36002;DHT22;22070;50.922;5.430;2023-02-24T04:54:11;6.50;99.90
36002;DHT22;22070;50.922;5.430;2023-02-24T04:56:42;6.40;99.90
36002;DHT22;22070;50.922;5.430;2023-02-24T04:59:10;6.50;99.90
36002;DHT22;22070;50.922;5.430;2023-02-24T05:01:36;6.40;99.90
36002;DHT22;22070;50.922;5.430;2023-02-24T05:04:08;6.00;99.90
36002;DHT22;22070;50.922;5.430;2023-02-24T05:06:35;6.20;99.90
36002;DHT22;22070;50.922;5.430;2023-02-24T05:09:05;6.20;99.90
36002;DHT22;22070;50.922;5.430;2023-02-24T05:11:42;6.10;99.90
36002;DHT22;22070;50.922;5.430;2023-02-24T05:14:09;6.10;99.90
36002;DHT22;22070;50.922;5.430;2023-02-24T05:16:40;6.10;99.90
36002;DHT22;22070;50.922;5.430;2023-02-24T05:19:07;6.00;99.90
36002;DHT22;22070;50.922;5.430;2023-02-24T05:21:51;5.90;99.90
36002;DHT22;22070;50.922;5.430;2023-02-24T05:24:17;5.90;99.90
36002;DHT22;22070;50.922;5.430;2023-02-24T05:26:43;5.50;99.90
36002;DHT22;22070;50.922;5.430;2023-02-24T05:29:10;5.70;99.90
36002;DHT22;22070;50.922;5.430;2023-02-24T05:31:36;5.70;99.90
36002;DHT22;22070;50.922;5.430;2023-02-24T05:34:05;5.60;99.90
36002;DHT22;22070;50.922;5.430;2023-02-24T05:36:37;5.60;99.90
36002;DHT22;22070;50.922;5.430;2023-02-24T05:39:05;5.50;99.90
36002;DHT22;22070;50.922;5.430;2023-02-24T05:41:33;5.40;99.90
36002;DHT22;22070;50.922;5.430;2023-02-24T05:44:05;5.40;99.90
36002;DHT22;22070;50.922;5.430;2023-02-24T05:46:38;5.30;99.90
36002;DHT22;22070;50.922;5.430;2023-02-24T05:49:16;5.30;99.90
36002;DHT22;22070;50.922;5.430;2023-02-24T05:51:49;5.20;99.90
36002;DHT22;22070;50.922;5.430;2023-02-24T05:54:47;5.30;99.90
36002;DHT22;22070;50.922;5.430;2023-02-24T05:57:16;5.40;99.90
36002;DHT22;22070;50.922;5.430;2023-02-24T05:59:47;5.30;99.90
36002;DHT22;22070;50.922;5.430;2023-02-24T06:02:17;5.20;99.90
36002;DHT22;22070;50.922;5.430;2023-02-24T06:04:51;5.10;99.90
36002;DHT22;22070;50.922;5.430;2023-02-24T06:07:21;4.90;99.90
36002;DHT22;22070;50.922;5.430;2023-02-24T06:09:51;4.90;99.90
36002;DHT22;22070;50.922;5.430;2023-02-24T06:12:27;4.80;99.90
36002;DHT22;22070;50.922;5.430;2023-02-24T06:14:53;5.10;99.90
36002;DHT22;22070;50.922;5.430;2023-02-24T06:17:19;4.80;99.90
36002;DHT22;22070;50.922;5.430;2023-02-24T06:19:48;4.80;99.90
36002;DHT22;22070;50.922;5.430;2023-02-24T06:22:16;4.90;99.90
36002;DHT22;22070;50.922;5.430;2023-02-24T06:24:44;4.80;99.90
36002;DHT22;22070;50.922;5.430;2023-02-24T06:27:14;4.70;99.90
36002;DHT22;22070;50.922;5.430;2023-02-24T06:29:48;4.70;99.90
36002;DHT22;22070;50.922;5.430;2023-02-24T06:32:15;4.70;99.90
36002;DHT22;22070;50.922;5.430;2023-02-24T06:34:41;4.60;99.90
36002;DHT22;22070;50.922;5.430;2023-02-24T06:37:09;4.70;99.90
36002;DHT22;22070;50.922;5.430;2023-02-24T06:39:35;4.70;99.90
36002;DHT22;22070;50.922;5.430;2023-02-24T06:42:01;4.70;99.90
36002;DHT22;22070;50.922;5.430;2023-02-24T06:44:34;4.70;99.90
36002;DHT22;22070;50.922;5.430;2023-02-24T06:47:01;4.70;99.90
36002;DHT22;22070;50.922;5.430;2023-02-24T06:49:27;4.70;99.90
36002;DHT22;22070;50.922;5.430;2023-02-24T06:51:54;4.70;99.90
36002;DHT22;22070;50.922;5.430;2023-02-24T06:54:20;4.60;99.90
36002;DHT22;22070;50.922;5.430;2023-02-24T06:56:47;4.60;99.90
36002;DHT22;22070;50.922;5.430;2023-02-24T06:59:13;4.50;99.90
36002;DHT22;22070;50.922;5.430;2023-02-24T07:01:49;4.60;99.90
36002;DHT22;22070;50.922;5.430;2023-02-24T07:04:15;4.70;99.90
36002;DHT22;22070;50.922;5.430;2023-02-24T07:06:43;4.70;99.90
36002;DHT22;22070;50.922;5.430;2023-02-24T07:09:11;5.00;99.90
36002;DHT22;22070;50.922;5.430;2023-02-24T07:11:39;4.90;99.90
36002;DHT22;22070;50.922;5.430;2023-02-24T07:14:06;5.00;99.90
36002;DHT22;22070;50.922;5.430;2023-02-24T07:16:33;5.00;99.90
36002;DHT22;22070;50.922;5.430;2023-02-24T07:19:06;5.00;99.90
36002;DHT22;22070;50.922;5.430;2023-02-24T07:21:39;5.00;99.90
36002;DHT22;22070;50.922;5.430;2023-02-24T07:24:13;5.00;99.90
36002;DHT22;22070;50.922;5.430;2023-02-24T07:26:40;5.00;99.90
36002;DHT22;22070;50.922;5.430;2023-02-24T07:29:10;5.00;99.90
36002;DHT22;22070;50.922;5.430;2023-02-24T07:31:37;5.60;99.90
36002;DHT22;22070;50.922;5.430;2023-02-24T07:34:03;5.00;99.90
36002;DHT22;22070;50.922;5.430;2023-02-24T07:36:29;5.10;99.90
36002;DHT22;22070;50.922;5.430;2023-02-24T07:38:56;5.10;99.90
36002;DHT22;22070;50.922;5.430;2023-02-24T07:41:24;5.20;99.90
36002;DHT22;22070;50.922;5.430;2023-02-24T07:43:52;5.20;99.90
36002;DHT22;22070;50.922;5.430;2023-02-24T07:46:26;5.20;99.90
36002;DHT22;22070;50.922;5.430;2023-02-24T07:48:53;5.10;99.90
36002;DHT22;22070;50.922;5.430;2023-02-24T07:51:20;5.20;99.90
36002;DHT22;22070;50.922;5.430;2023-02-24T07:53:51;5.20;99.90
36002;DHT22;22070;50.922;5.430;2023-02-24T07:56:19;5.20;99.90
36002;DHT22;22070;50.922;5.430;2023-02-24T07:58:52;5.10;99.90
36002;DHT22;22070;50.922;5.430;2023-02-24T08:01:27;5.10;99.90
36002;DHT22;22070;50.922;5.430;2023-02-24T08:03:58;5.00;99.90
36002;DHT22;22070;50.922;5.430;2023-02-24T08:06:37;5.20;99.90
36002;DHT22;22070;50.922;5.430;2023-02-24T08:09:05;5.10;99.90
36002;DHT22;22070;50.922;5.430;2023-02-24T08:11:52;5.10;99.90
36002;DHT22;22070;50.922;5.430;2023-02-24T08:14:27;5.10;99.90
36002;DHT22;22070;50.922;5.430;2023-02-24T08:16:57;5.20;99.90
36002;DHT22;22070;50.922;5.430;2023-02-24T08:19:25;5.30;99.90
36002;DHT22;22070;50.922;5.430;2023-02-24T08:21:59;5.30;99.90
36002;DHT22;22070;50.922;5.430;2023-02-24T08:24:44;5.30;99.90
36002;DHT22;22070;50.922;5.430;2023-02-24T08:27:10;5.40;99.90
36002;DHT22;22070;50.922;5.430;2023-02-24T08:29:38;5.30;99.90
36002;DHT22;22070;50.922;5.430;2023-02-24T08:32:10;5.30;99.90
36002;DHT22;22070;50.922;5.430;2023-02-24T08:34:36;5.30;99.90
36002;DHT22;22070;50.922;5.430;2023-02-24T08:37:03;5.20;99.90
36002;DHT22;22070;50.922;5.430;2023-02-24T08:39:28;5.20;99.90
36002;DHT22;22070;50.922;5.430;2023-02-24T08:41:56;5.20;99.90
36002;DHT22;22070;50.922;5.430;2023-02-24T08:44:22;5.30;99.90
36002;DHT22;22070;50.922;5.430;2023-02-24T08:46:54;5.30;99.90
36002;DHT22;22070;50.922;5.430;2023-02-24T08:49:21;5.40;99.90
36002;DHT22;22070;50.922;5.430;2023-02-24T08:51:50;5.50;99.90
36002;DHT22;22070;50.922;5.430;2023-02-24T08:54:23;5.50;99.90
36002;DHT22;22070;50.922;5.430;2023-02-24T08:56:54;5.50;99.90
36002;DHT22;22070;50.922;5.430;2023-02-24T08:59:25;5.60;99.90
36002;DHT22;22070;50.922;5.430;2023-02-24T09:02:04;5.60;99.90
36002;DHT22;22070;50.922;5.430;2023-02-24T09:04:48;5.60;99.90
36002;DHT22;22070;50.922;5.430;2023-02-24T09:07:40;5.60;99.90
36002;DHT22;22070;50.922;5.430;2023-02-24T09:10:12;5.50;99.90
36002;DHT22;22070;50.922;5.430;2023-02-24T09:12:43;5.50;99.90
36002;DHT22;22070;50.922;5.430;2023-02-24T09:15:11;5.70;99.90
36002;DHT22;22070;50.922;5.430;2023-02-24T09:17:42;5.70;99.90
36002;DHT22;22070;50.922;5.430;2023-02-24T09:20:14;5.70;99.90
36002;DHT22;22070;50.922;5.430;2023-02-24T09:23:01;5.70;99.90
36002;DHT22;22070;50.922;5.430;2023-02-24T09:25:37;5.80;99.90
36002;DHT22;22070;50.922;5.430;2023-02-24T09:28:07;5.70;99.90
36002;DHT22;22070;50.922;5.430;2023-02-24T09:30:42;5.80;99.90
36002;DHT22;22070;50.922;5.430;2023-02-24T09:35:49;5.80;99.90
36002;DHT22;22070;50.922;5.430;2023-02-24T09:38:17;5.80;99.90
36002;DHT22;22070;50.922;5.430;2023-02-24T09:40:45;5.90;99.90
36002;DHT22;22070;50.922;5.430;2023-02-24T09:43:22;6.00;99.90
36002;DHT22;22070;50.922;5.430;2023-02-24T09:48:33;5.90;99.90
36002;DHT22;22070;50.922;5.430;2023-02-24T09:51:09;5.90;99.90
36002;DHT22;22070;50.922;5.430;2023-02-24T09:53:36;6.00;99.90
36002;DHT22;22070;50.922;5.430;2023-02-24T09:56:27;6.10;99.90
36002;DHT22;22070;50.922;5.430;2023-02-24T09:59:03;6.00;99.90
36002;DHT22;22070;50.922;5.430;2023-02-24T10:01:47;6.10;99.90
36002;DHT22;22070;50.922;5.430;2023-02-24T10:04:50;6.30;99.90
36002;DHT22;22070;50.922;5.430;2023-02-24T10:07:33;6.30;99.90
36002;DHT22;22070;50.922;5.430;2023-02-24T10:10:24;6.20;99.90
36002;DHT22;22070;50.922;5.430;2023-02-24T10:13:06;6.30;99.90
36002;DHT22;22070;50.922;5.430;2023-02-24T10:15:41;6.20;99.90
36002;DHT22;22070;50.922;5.430;2023-02-24T10:18:50;6.30;99.90
36002;DHT22;22070;50.922;5.430;2023-02-24T10:21:59;6.40;99.90
36002;DHT22;22070;50.922;5.430;2023-02-24T10:24:41;6.40;99.90
36002;DHT22;22070;50.922;5.430;2023-02-24T10:27:31;6.40;99.90
36002;DHT22;22070;50.922;5.430;2023-02-24T10:33:10;6.40;99.90
36002;DHT22;22070;50.922;5.430;2023-02-24T10:35:39;6.40;99.90
36002;DHT22;22070;50.922;5.430;2023-02-24T10:38:04;6.30;99.90
36002;DHT22;22070;50.922;5.430;2023-02-24T10:40:31;6.30;99.90
36002;DHT22;22070;50.922;5.430;2023-02-24T10:43:19;6.40;99.90
36002;DHT22;22070;50.922;5.430;2023-02-24T10:45:55;6.30;99.90
36002;DHT22;22070;50.922;5.430;2023-02-24T10:48:33;6.30;99.90
36002;DHT22;22070;50.922;5.430;2023-02-24T10:51:12;6.30;99.90
36002;DHT22;22070;50.922;5.430;2023-02-24T10:53:46;6.30;99.90
36002;DHT22;22070;50.922;5.430;2023-02-24T10:56:18;6.10;99.90
36002;DHT22;22070;50.922;5.430;2023-02-24T10:59:17;6.10;99.90
36002;DHT22;22070;50.922;5.430;2023-02-24T11:02:17;6.20;99.90
36002;DHT22;22070;50.922;5.430;2023-02-24T11:04:55;6.10;99.90
36002;DHT22;22070;50.922;5.430;2023-02-24T11:07:27;6.10;99.90
36002;DHT22;22070;50.922;5.430;2023-02-24T11:10:22;6.10;99.90
36002;DHT22;22070;50.922;5.430;2023-02-24T11:12:56;6.20;99.90
36002;DHT22;22070;50.922;5.430;2023-02-24T11:18:27;6.30;99.90
36002;DHT22;22070;50.922;5.430;2023-02-24T11:23:45;6.40;99.90
36002;DHT22;22070;50.922;5.430;2023-02-24T11:26:18;6.40;99.90
36002;DHT22;22070;50.922;5.430;2023-02-24T11:34:16;6.20;99.90
36002;DHT22;22070;50.922;5.430;2023-02-24T11:42:20;6.50;99.90
36002;DHT22;22070;50.922;5.430;2023-02-24T11:45:06;6.50;99.90
36002;DHT22;22070;50.922;5.430;2023-02-24T11:47:47;6.70;99.90
36002;DHT22;22070;50.922;5.430;2023-02-24T11:50:42;6.80;99.90
36002;DHT22;22070;50.922;5.430;2023-02-24T11:53:34;6.80;99.90
36002;DHT22;22070;50.922;5.430;2023-02-24T11:56:14;6.80;99.90
36002;DHT22;22070;50.922;5.430;2023-02-24T11:58:47;6.80;99.90
36002;DHT22;22070;50.922;5.430;2023-02-24T12:04:24;6.70;99.90
36002;DHT22;22070;50.922;5.430;2023-02-24T12:09:39;6.70;99.90
36002;DHT22;22070;50.922;5.430;2023-02-24T12:15:01;6.70;99.90
36002;DHT22;22070;50.922;5.430;2023-02-24T12:17:30;6.70;99.90
36002;DHT22;22070;50.922;5.430;2023-02-24T12:20:05;6.80;99.90
36002;DHT22;22070;50.922;5.430;2023-02-24T12:22:45;6.70;99.90
36002;DHT22;22070;50.922;5.430;2023-02-24T12:25:13;6.90;99.90
36002;DHT22;22070;50.922;5.430;2023-02-24T12:36:22;6.90;99.90
36002;DHT22;22070;50.922;5.430;2023-02-24T12:44:01;7.00;99.90
36002;DHT22;22070;50.922;5.430;2023-02-24T12:46:34;7.00;99.90
36002;DHT22;22070;50.922;5.430;2023-02-24T13:00:15;7.20;99.90
36002;DHT22;22070;50.922;5.430;2023-02-24T13:06:23;7.30;99.90
36002;DHT22;22070;50.922;5.430;2023-02-24T13:14:51;7.40;99.90
36002;DHT22;22070;50.922;5.430;2023-02-24T13:17:25;7.50;99.90
36002;DHT22;22070;50.922;5.430;2023-02-24T13:19:54;7.50;99.90
36002;DHT22;22070;50.922;5.430;2023-02-24T13:22:29;7.50;99.90
36002;DHT22;22070;50.922;5.430;2023-02-24T13:25:16;7.50;99.90
36002;DHT22;22070;50.922;5.430;2023-02-24T13:27:52;7.50;99.90
36002;DHT22;22070;50.922;5.430;2023-02-24T13:35:30;7.40;99.90
36002;DHT22;22070;50.922;5.430;2023-02-24T13:38:24;7.30;99.90
36002;DHT22;22070;50.922;5.430;2023-02-24T13:40:50;7.20;99.90
36002;DHT22;22070;50.922;5.430;2023-02-24T13:43:27;7.30;99.90
36002;DHT22;22070;50.922;5.430;2023-02-24T13:46:02;7.40;99.90
36002;DHT22;22070;50.922;5.430;2023-02-24T13:51:12;7.40;99.90
36002;DHT22;22070;50.922;5.430;2023-02-24T14:01:47;7.30;99.90
36002;DHT22;22070;50.922;5.430;2023-02-24T14:06:51;7.10;99.90
36002;DHT22;22070;50.922;5.430;2023-02-24T14:09:21;7.10;99.90
36002;DHT22;22070;50.922;5.430;2023-02-24T14:11:51;7.00;99.90
36002;DHT22;22070;50.922;5.430;2023-02-24T14:14:18;7.00;99.90
36002;DHT22;22070;50.922;5.430;2023-02-24T14:16:44;7.00;99.90
36002;DHT22;22070;50.922;5.430;2023-02-24T14:19:15;7.00;99.90
36002;DHT22;22070;50.922;5.430;2023-02-24T14:21:58;6.90;99.90
36002;DHT22;22070;50.922;5.430;2023-02-24T14:24:26;6.80;99.90
36002;DHT22;22070;50.922;5.430;2023-02-24T14:26:53;6.90;99.90
36002;DHT22;22070;50.922;5.430;2023-02-24T14:29:24;6.80;99.90
36002;DHT22;22070;50.922;5.430;2023-02-24T14:31:53;7.00;99.90
36002;DHT22;22070;50.922;5.430;2023-02-24T14:34:22;7.00;99.90
36002;DHT22;22070;50.922;5.430;2023-02-24T14:36:51;7.10;99.90
36002;DHT22;22070;50.922;5.430;2023-02-24T14:39:27;7.10;99.90
36002;DHT22;22070;50.922;5.430;2023-02-24T14:42:13;7.10;99.90
36002;DHT22;22070;50.922;5.430;2023-02-24T14:44:42;7.20;99.90
36002;DHT22;22070;50.922;5.430;2023-02-24T14:47:11;7.10;99.90
36002;DHT22;22070;50.922;5.430;2023-02-24T14:49:38;7.20;99.90
36002;DHT22;22070;50.922;5.430;2023-02-24T14:54:44;7.10;99.90
36002;DHT22;22070;50.922;5.430;2023-02-24T14:57:13;7.10;99.90
36002;DHT22;22070;50.922;5.430;2023-02-24T14:59:41;7.00;99.90
36002;DHT22;22070;50.922;5.430;2023-02-24T15:02:15;7.00;99.90
36002;DHT22;22070;50.922;5.430;2023-02-24T15:04:44;7.00;99.90
36002;DHT22;22070;50.922;5.430;2023-02-24T15:07:50;6.90;99.90
36002;DHT22;22070;50.922;5.430;2023-02-24T15:10:22;6.80;99.90
36002;DHT22;22070;50.922;5.430;2023-02-24T15:12:53;6.80;99.90
36002;DHT22;22070;50.922;5.430;2023-02-24T15:15:23;6.80;99.90
36002;DHT22;22070;50.922;5.430;2023-02-24T15:18:11;6.80;99.90
36002;DHT22;22070;50.922;5.430;2023-02-24T15:20:40;6.90;99.90
36002;DHT22;22070;50.922;5.430;2023-02-24T15:23:24;6.80;99.90
36002;DHT22;22070;50.922;5.430;2023-02-24T15:25:51;6.80;99.90
36002;DHT22;22070;50.922;5.430;2023-02-24T15:28:31;6.80;99.90
36002;DHT22;22070;50.922;5.430;2023-02-24T15:33:23;6.70;99.90
36002;DHT22;22070;50.922;5.430;2023-02-24T15:35:55;6.80;99.90
36002;DHT22;22070;50.922;5.430;2023-02-24T15:38:32;6.60;99.90
36002;DHT22;22070;50.922;5.430;2023-02-24T15:41:00;6.60;99.90
36002;DHT22;22070;50.922;5.430;2023-02-24T15:46:19;6.80;99.90
36002;DHT22;22070;50.922;5.430;2023-02-24T15:48:48;6.80;99.90
36002;DHT22;22070;50.922;5.430;2023-02-24T15:53:59;6.70;99.90
36002;DHT22;22070;50.922;5.430;2023-02-24T15:56:26;6.70;99.90
36002;DHT22;22070;50.922;5.430;2023-02-24T15:58:51;6.70;99.90
36002;DHT22;22070;50.922;5.430;2023-02-24T16:01:17;6.80;99.90
36002;DHT22;22070;50.922;5.430;2023-02-24T16:03:43;6.80;99.90
36002;DHT22;22070;50.922;5.430;2023-02-24T16:06:19;6.70;99.90
36002;DHT22;22070;50.922;5.430;2023-02-24T16:08:46;6.50;99.90
36002;DHT22;22070;50.922;5.430;2023-02-24T16:11:13;6.80;99.90
36002;DHT22;22070;50.922;5.430;2023-02-24T16:13:51;6.70;99.90
36002;DHT22;22070;50.922;5.430;2023-02-24T16:16:17;6.70;99.90
36002;DHT22;22070;50.922;5.430;2023-02-24T16:18:44;6.60;99.90
36002;DHT22;22070;50.922;5.430;2023-02-24T16:21:09;6.60;99.90
36002;DHT22;22070;50.922;5.430;2023-02-24T16:23:35;6.60;99.90
36002;DHT22;22070;50.922;5.430;2023-02-24T16:26:07;6.60;99.90
36002;DHT22;22070;50.922;5.430;2023-02-24T16:28:35;6.70;99.90
36002;DHT22;22070;50.922;5.430;2023-02-24T16:31:01;6.60;99.90
36002;DHT22;22070;50.922;5.430;2023-02-24T16:33:27;6.60;99.90
36002;DHT22;22070;50.922;5.430;2023-02-24T16:35:53;6.60;99.90
36002;DHT22;22070;50.922;5.430;2023-02-24T16:38:20;6.70;99.90
36002;DHT22;22070;50.922;5.430;2023-02-24T16:40:48;6.70;99.90
36002;DHT22;22070;50.922;5.430;2023-02-24T16:43:14;6.80;99.90
36002;DHT22;22070;50.922;5.430;2023-02-24T16:45:41;6.80;99.90
36002;DHT22;22070;50.922;5.430;2023-02-24T16:48:28;6.80;99.90
36002;DHT22;22070;50.922;5.430;2023-02-24T16:50:54;6.80;99.90
36002;DHT22;22070;50.922;5.430;2023-02-24T16:53:21;6.70;99.90
36002;DHT22;22070;50.922;5.430;2023-02-24T16:55:48;6.60;99.90
36002;DHT22;22070;50.922;5.430;2023-02-24T16:58:14;6.60;99.90
36002;DHT22;22070;50.922;5.430;2023-02-24T17:00:42;6.60;99.90
36002;DHT22;22070;50.922;5.430;2023-02-24T17:03:30;6.60;99.90
36002;DHT22;22070;50.922;5.430;2023-02-24T17:05:57;6.60;99.90
36002;DHT22;22070;50.922;5.430;2023-02-24T17:08:23;6.60;99.90
36002;DHT22;22070;50.922;5.430;2023-02-24T17:10:50;6.60;99.90
36002;DHT22;22070;50.922;5.430;2023-02-24T17:13:17;6.70;99.90
36002;DHT22;22070;50.922;5.430;2023-02-24T17:15:43;6.60;99.90
36002;DHT22;22070;50.922;5.430;2023-02-24T17:18:09;6.70;99.90
36002;DHT22;22070;50.922;5.430;2023-02-24T17:20:37;6.70;99.90
36002;DHT22;22070;50.922;5.430;2023-02-24T17:23:02;6.70;99.90
36002;DHT22;22070;50.922;5.430;2023-02-24T17:25:29;6.80;99.90
36002;DHT22;22070;50.922;5.430;2023-02-24T17:27:56;6.80;99.90
36002;DHT22;22070;50.922;5.430;2023-02-24T17:30:23;6.80;99.90
36002;DHT22;22070;50.922;5.430;2023-02-24T17:32:49;6.80;99.90
36002;DHT22;22070;50.922;5.430;2023-02-24T17:35:15;6.90;99.90
36002;DHT22;22070;50.922;5.430;2023-02-24T17:37:41;6.90;99.90
36002;DHT22;22070;50.922;5.430;2023-02-24T17:40:08;6.90;99.90
36002;DHT22;22070;50.922;5.430;2023-02-24T17:42:35;6.90;99.90
36002;DHT22;22070;50.922;5.430;2023-02-24T17:45:01;7.00;99.90
36002;DHT22;22070;50.922;5.430;2023-02-24T17:47:27;6.90;99.90
36002;DHT22;22070;50.922;5.430;2023-02-24T17:49:52;6.90;99.90
36002;DHT22;22070;50.922;5.430;2023-02-24T17:52:18;6.90;99.90
36002;DHT22;22070;50.922;5.430;2023-02-24T17:54:43;6.90;99.90
36002;DHT22;22070;50.922;5.430;2023-02-24T17:57:09;6.90;99.90
36002;DHT22;22070;50.922;5.430;2023-02-24T17:59:36;6.90;99.90
36002;DHT22;22070;50.922;5.430;2023-02-24T18:02:02;6.90;99.90
36002;DHT22;22070;50.922;5.430;2023-02-24T18:04:29;6.90;99.90
36002;DHT22;22070;50.922;5.430;2023-02-24T18:06:54;6.90;99.90
36002;DHT22;22070;50.922;5.430;2023-02-24T18:09:20;6.90;99.90
36002;DHT22;22070;50.922;5.430;2023-02-24T18:11:48;6.90;99.90
36002;DHT22;22070;50.922;5.430;2023-02-24T18:14:13;6.90;99.90
36002;DHT22;22070;50.922;5.430;2023-02-24T18:16:39;6.90;99.90